Time;durP1;ratioP1;P1;durP2;ratioP2;P2;SDS_P1;SDS_P2;PMS_P1;PMS_P2;Temp;Humidity;BMP_temperature;BMP_pressure;BME280_temperature;BME280_humidity;BME280_pressure;Samples;Min_cycle;Max_cycle;Signal;HPM_P1;HPM_P2
2023/11/23 00:00:55;;;;;;;24.17;8.00;;;;;;;3.87;100.00;101746.50;7363943;19;20439;-40
2023/11/23 00:03:25;;;;;;;17.03;7.47;;;;;;;3.93;100.00;101746.13;7386597;19;20414;-40
2023/11/23 00:05:57;;;;;;;18.80;6.97;;;;;;;4.01;100.00;101739.13;7364183;19;20431;-40
2023/11/23 00:08:27;;;;;;;19.57;7.60;;;;;;;4.02;100.00;101728.13;7386638;19;20439;-41
2023/11/23 00:10:56;;;;;;;19.57;8.57;;;;;;;4.12;100.00;101717.03;7363010;19;20450;-40
2023/11/23 00:13:26;;;;;;;32.10;13.77;;;;;;;4.13;100.00;101709.50;7385124;19;20415;-40
2023/11/23 00:15:55;;;;;;;20.77;8.17;;;;;;;4.15;100.00;101697.72;7363996;19;20463;-40
2023/11/23 00:18:25;;;;;;;25.10;10.70;;;;;;;4.21;100.00;101686.25;7383580;19;20519;-41
2023/11/23 00:20:57;;;;;;;30.33;8.00;;;;;;;4.23;100.00;101677.94;7364159;19;20454;-40
2023/11/23 00:23:27;;;;;;;12.93;6.23;;;;;;;4.24;100.00;101649.06;7383655;19;20450;-41
2023/11/23 00:25:56;;;;;;;26.87;9.57;;;;;;;4.35;100.00;101404.63;7382819;19;20411;-41
2023/11/23 00:28:26;;;;;;;30.80;10.37;;;;;;;4.37;100.00;101413.31;7385214;19;20510;-40
2023/11/23 00:30:56;;;;;;;22.33;10.50;;;;;;;4.40;100.00;101389.66;7363575;19;20889;-40
2023/11/23 00:33:25;;;;;;;21.47;10.27;;;;;;;4.43;100.00;101378.03;7385905;19;20946;-40
2023/11/23 00:35:58;;;;;;;18.90;9.90;;;;;;;4.50;100.00;101378.50;7363609;19;20516;-41
2023/11/23 00:38:27;;;;;;;26.53;9.70;;;;;;;4.57;100.00;101376.50;7377631;19;20443;-41
2023/11/23 00:40:57;;;;;;;28.00;11.50;;;;;;;4.56;100.00;101368.75;7387714;19;20414;-41
2023/11/23 00:43:26;;;;;;;28.23;12.33;;;;;;;4.59;100.00;101374.06;7384846;19;20407;-41
2023/11/23 00:45:56;;;;;;;29.37;12.60;;;;;;;4.65;100.00;101379.66;7362325;19;20801;-40
2023/11/23 00:48:27;;;;;;;25.67;11.50;;;;;;;4.68;100.00;101371.31;7386078;19;20779;-41
2023/11/23 00:50:59;;;;;;;39.13;14.60;;;;;;;4.69;100.00;101376.56;7362570;19;20434;-40
2023/11/23 00:53:28;;;;;;;35.77;13.20;;;;;;;4.73;100.00;101378.56;7364196;19;20419;-40
2023/11/23 00:55:58;;;;;;;36.90;13.70;;;;;;;4.81;100.00;101385.91;7385685;19;20418;-40
2023/11/23 00:58:28;;;;;;;32.23;12.77;;;;;;;4.86;100.00;101379.47;7372605;19;20447;-40
2023/11/23 01:00:57;;;;;;;38.20;16.20;;;;;;;4.90;100.00;101370.34;7385942;19;20400;-41
2023/11/23 01:03:27;;;;;;;34.07;13.40;;;;;;;4.88;100.00;101383.06;7383908;19;20790;-40
2023/11/23 01:05:59;;;;;;;40.93;16.30;;;;;;;4.95;100.00;101367.38;7370891;19;20514;-41
2023/11/23 01:08:29;;;;;;;18.47;7.10;;;;;;;5.00;100.00;101363.50;7369496;19;20449;-40
2023/11/23 01:10:59;;;;;;;25.87;11.47;;;;;;;5.07;100.00;101354.59;7389024;19;20832;-41
2023/11/23 01:13:29;;;;;;;27.27;12.43;;;;;;;5.10;100.00;101361.63;7371463;19;21071;-40
2023/11/23 01:15:59;;;;;;;28.23;12.97;;;;;;;5.11;100.00;101355.72;7392003;19;20439;-42
2023/11/23 01:18:28;;;;;;;36.03;15.03;;;;;;;5.14;100.00;101345.72;7375161;19;20466;-41
2023/11/23 01:21:00;;;;;;;20.77;6.43;;;;;;;5.13;100.00;101359.31;7391049;19;20412;-40
2023/11/23 01:23:30;;;;;;;34.40;14.17;;;;;;;5.18;100.00;101351.97;7369668;19;20407;-40
2023/11/23 01:26:00;;;;;;;25.63;10.13;;;;;;;5.17;100.00;101370.66;7389837;19;20418;-41
2023/11/23 01:28:29;;;;;;;23.07;8.73;;;;;;;5.21;100.00;101370.97;7371237;19;21046;-40
2023/11/23 01:30:59;;;;;;;29.07;12.47;;;;;;;5.24;100.00;101371.19;7395659;19;20951;-41
2023/11/23 01:33:28;;;;;;;11.57;7.20;;;;;;;5.26;100.00;101394.34;7377926;19;20410;-40
2023/11/23 01:36:02;;;;;;;35.40;13.87;;;;;;;5.28;100.00;101395.31;7402208;19;20433;-40
2023/11/23 01:38:31;;;;;;;28.80;10.20;;;;;;;5.32;100.00;101399.03;7375995;19;20472;-40
2023/11/23 01:41:02;;;;;;;30.07;9.43;;;;;;;5.38;100.00;101397.78;7395776;19;20415;-41
2023/11/23 01:43:32;;;;;;;39.63;11.30;;;;;;;5.42;100.00;101403.16;7375842;19;20404;-40
2023/11/23 01:46:01;;;;;;;48.03;17.13;;;;;;;5.45;100.00;101403.38;7396172;19;20418;-40
2023/11/23 01:48:32;;;;;;;30.67;13.27;;;;;;;5.49;100.00;101406.25;7375357;19;20443;-40
2023/11/23 01:51:05;;;;;;;13.73;6.43;;;;;;;5.53;100.00;101397.13;7395814;19;20410;-41
2023/11/23 01:53:35;;;;;;;34.97;15.90;;;;;;;5.58;100.00;101400.03;7374008;19;20400;-40
2023/11/23 01:56:05;;;;;;;28.60;11.67;;;;;;;5.61;100.00;101405.38;7394303;19;20403;-40
2023/11/23 01:58:35;;;;;;;20.63;9.80;;;;;;;5.64;100.00;101409.03;7372954;19;20456;-40
2023/11/23 02:01:06;;;;;;;33.03;13.30;;;;;;;5.67;100.00;101387.88;7398279;19;20498;-40
2023/11/23 02:03:36;;;;;;;22.33;9.23;;;;;;;5.69;100.00;101394.00;7373680;19;20407;-40
2023/11/23 02:06:09;;;;;;;18.67;6.77;;;;;;;5.74;100.00;101395.22;7396327;19;20707;-41
2023/11/23 02:08:39;;;;;;;32.63;11.07;;;;;;;5.76;100.00;101382.53;7373624;19;20808;-40
2023/11/23 02:11:09;;;;;;;19.47;8.50;;;;;;;5.83;100.00;101394.13;7394956;19;20412;-41
2023/11/23 02:13:39;;;;;;;42.90;14.10;;;;;;;5.81;100.00;101384.63;7371913;19;20436;-40
2023/11/23 02:16:09;;;;;;;37.10;12.90;;;;;;;5.83;100.00;101381.31;7395269;19;20479;-42
2023/11/23 02:18:39;;;;;;;16.50;8.60;;;;;;;5.86;100.00;101390.09;7373057;19;20454;-41
2023/11/23 02:21:11;;;;;;;28.47;9.37;;;;;;;5.90;100.00;101383.53;7394862;19;20411;-42
2023/11/23 02:23:41;;;;;;;35.17;11.83;;;;;;;5.92;100.00;101376.84;7373429;19;20396;-41
2023/11/23 02:26:13;;;;;;;21.23;9.30;;;;;;;5.95;100.00;101384.75;7395126;19;20418;-41
2023/11/23 02:28:43;;;;;;;21.50;9.37;;;;;;;5.99;100.00;101368.78;7372953;19;20463;-41
2023/11/23 02:31:12;;;;;;;33.87;13.50;;;;;;;6.01;100.00;101367.22;7394891;19;21026;-42
2023/11/23 02:33:42;;;;;;;28.83;11.80;;;;;;;6.06;100.00;101375.28;7372493;19;20412;-41
2023/11/23 02:36:12;;;;;;;25.57;11.07;;;;;;;6.07;100.00;101362.56;7389333;19;20420;-42
2023/11/23 02:38:41;;;;;;;34.73;12.13;;;;;;;6.10;100.00;101361.00;7372640;19;20444;-44
2023/11/23 02:41:14;;;;;;;40.33;15.50;;;;;;;6.14;100.00;101355.28;7392995;19;20408;-40
2023/11/23 02:43:43;;;;;;;31.50;12.17;;;;;;;6.17;100.00;101329.91;7372942;19;20408;-41
2023/11/23 02:46:13;;;;;;;35.13;13.97;;;;;;;6.15;100.00;101337.47;7394898;19;20403;-40
2023/11/23 02:48:42;;;;;;;20.40;9.07;;;;;;;6.19;100.00;101320.63;7372220;19;20444;-41
2023/11/23 02:51:13;;;;;;;19.07;8.77;;;;;;;6.22;100.00;101336.22;7394380;19;20411;-42
2023/11/23 02:53:47;;;;;;;38.17;14.27;;;;;;;6.25;100.00;101309.94;7368706;19;20411;-40
2023/11/23 02:56:23;;;;;;;36.60;14.80;;;;;;;6.29;100.00;101312.81;7395178;19;20403;-40
2023/11/23 02:58:53;;;;;;;38.70;14.17;;;;;;;6.30;100.00;101288.94;7372223;19;20395;-40
2023/11/23 03:01:21;;;;;;;24.70;9.13;;;;;;;6.32;100.00;101282.25;7395105;19;20805;-41
2023/11/23 03:03:51;;;;;;;27.70;10.50;;;;;;;6.39;100.00;101267.28;7373905;19;20395;-40
2023/11/23 03:06:21;;;;;;;35.53;11.30;;;;;;;6.39;100.00;101274.97;7394732;19;20408;-40
2023/11/23 03:08:51;;;;;;;22.20;9.30;;;;;;;6.40;100.00;101267.38;7371373;19;20403;-41
2023/11/23 03:11:26;;;;;;;12.37;6.17;;;;;;;6.37;100.00;101263.72;7393800;19;21003;-40
2023/11/23 03:13:57;;;;;;;32.37;13.33;;;;;;;6.40;100.00;101263.94;7369902;19;20407;-41
2023/11/23 03:16:26;;;;;;;35.20;12.60;;;;;;;6.36;100.00;101265.38;7396879;19;20403;-41
2023/11/23 03:18:56;;;;;;;34.43;13.00;;;;;;;6.35;100.00;101259.38;7370778;19;20391;-40
2023/11/23 03:21:26;;;;;;;35.30;14.27;;;;;;;6.33;100.00;101237.00;7396595;19;20768;-41
2023/11/23 03:23:56;;;;;;;35.40;11.87;;;;;;;6.33;100.00;101227.66;7373109;19;20402;-40
2023/11/23 03:26:28;;;;;;;27.67;10.27;;;;;;;6.32;100.00;101205.34;7394489;19;20411;-41
2023/11/23 03:28:58;;;;;;;18.40;8.70;;;;;;;6.31;100.00;101198.44;7370961;19;20474;-40
2023/11/23 03:31:27;;;;;;;41.70;15.50;;;;;;;6.33;100.00;101180.63;7394298;19;20829;-41
2023/11/23 03:33:57;;;;;;;29.97;12.07;;;;;;;6.38;100.00;101163.88;7371107;19;20395;-40
2023/11/23 03:36:26;;;;;;;16.73;6.27;;;;;;;6.39;100.00;101141.66;7394227;19;20504;-41
2023/11/23 03:38:56;;;;;;;37.27;13.20;;;;;;;6.41;100.00;101133.28;7370276;19;20401;-40
2023/11/23 03:41:28;;;;;;;37.03;14.50;;;;;;;6.45;100.00;101129.25;7393509;19;20436;-40
2023/11/23 03:43:57;;;;;;;25.27;11.87;;;;;;;6.47;100.00;101115.75;7371392;19;20398;-40
2023/11/23 03:46:27;;;;;;;32.87;14.00;;;;;;;6.48;100.00;101101.28;7390779;19;21023;-41
2023/11/23 03:48:57;;;;;;;33.73;14.90;;;;;;;6.52;100.00;101098.13;7370375;19;20414;-40
2023/11/23 03:51:27;;;;;;;22.80;9.13;;;;;;;6.53;100.00;101102.47;7392777;19;20434;-41
2023/11/23 03:53:57;;;;;;;31.83;12.97;;;;;;;6.56;100.00;101087.25;7369489;19;20391;-40
2023/11/23 03:56:29;;;;;;;23.77;9.63;;;;;;;6.60;100.00;101076.41;7393532;19;20800;-43
2023/11/23 03:58:59;;;;;;;49.10;14.03;;;;;;;6.60;100.00;101067.81;7369421;19;20399;-41
2023/11/23 04:01:28;;;;;;;26.90;12.13;;;;;;;6.62;100.00;101064.56;7393400;19;20947;-40
2023/11/23 04:03:58;;;;;;;16.73;7.80;;;;;;;6.65;100.00;101058.75;7370034;19;20786;-40
2023/11/23 04:06:28;;;;;;;30.83;13.00;;;;;;;6.67;100.00;101059.72;7393039;19;20785;-40
2023/11/23 04:08:57;;;;;;;31.40;12.33;;;;;;;6.68;100.00;101035.88;7369524;19;20478;-40
2023/11/23 04:11:29;;;;;;;36.17;15.00;;;;;;;6.68;100.00;101017.91;7392391;19;20920;-40
2023/11/23 04:13:59;;;;;;;36.97;13.40;;;;;;;6.72;100.00;101042.06;7368944;19;20415;-40
2023/11/23 04:16:28;;;;;;;17.10;8.57;;;;;;;6.74;100.00;101005.47;7393363;19;20407;-39
2023/11/23 04:18:58;;;;;;;20.17;7.60;;;;;;;6.80;100.00;100989.56;7369434;19;20403;-40
2023/11/23 04:21:28;;;;;;;17.27;7.70;;;;;;;6.79;100.00;100997.16;7392540;19;20410;-40
2023/11/23 04:23:57;;;;;;;19.47;7.10;;;;;;;6.85;100.00;100977.00;7370341;19;20403;-40
2023/11/23 04:26:31;;;;;;;40.13;15.67;;;;;;;6.83;100.00;100966.66;7392484;19;20399;-41
2023/11/23 04:29:01;;;;;;;21.47;8.10;;;;;;;6.84;100.00;100958.19;7369170;19;20487;-40
2023/11/23 04:31:30;;;;;;;28.00;11.87;;;;;;;6.94;100.00;100935.63;7393909;19;20446;-40
2023/11/23 04:34:00;;;;;;;27.77;11.83;;;;;;;6.93;100.00;100947.59;7370919;19;20402;-40
2023/11/23 04:36:30;;;;;;;23.50;9.10;;;;;;;6.95;100.00;100933.16;7392777;19;20408;-40
2023/11/23 04:39:00;;;;;;;36.97;14.50;;;;;;;6.98;100.00;100923.06;7368900;19;21084;-41
2023/11/23 04:41:32;;;;;;;36.43;13.07;;;;;;;7.02;100.00;100913.88;7391922;19;20408;-40
2023/11/23 04:44:03;;;;;;;25.27;8.10;;;;;;;7.06;100.00;100890.19;7369351;19;20402;-41
2023/11/23 04:46:32;;;;;;;30.50;12.13;;;;;;;7.13;100.00;100894.00;7392352;19;20479;-40
2023/11/23 04:49:02;;;;;;;36.13;12.03;;;;;;;7.16;100.00;100884.78;7368395;19;20805;-40
2023/11/23 04:51:32;;;;;;;21.97;8.60;;;;;;;7.23;100.00;100855.22;7392603;19;20403;-40
2023/11/23 04:54:02;;;;;;;24.53;9.53;;;;;;;7.31;100.00;100845.41;7368427;19;20486;-41
2023/11/23 04:56:34;;;;;;;38.17;13.60;;;;;;;7.37;100.00;100830.34;7393496;19;20414;-40
2023/11/23 04:59:04;;;;;;;24.93;10.47;;;;;;;7.45;100.00;100801.63;7367699;19;20470;-41
2023/11/23 05:01:31;;;;;;;13.60;6.27;;;;;;;7.52;100.00;100798.59;7393522;19;20409;-40
2023/11/23 05:04:01;;;;;;;18.80;8.17;;;;;;;7.58;100.00;100786.09;7372118;19;20508;-40
2023/11/23 05:06:35;;;;;;;25.73;6.53;;;;;;;7.64;100.00;100789.00;7396572;19;20411;-40
2023/11/23 05:09:06;;;;;;;17.10;6.57;;;;;;;7.69;100.00;100772.16;7374364;19;20402;-40
2023/11/23 05:11:39;;;;;;;11.93;5.63;;;;;;;7.77;100.00;100763.97;7396008;19;20399;-40
2023/11/23 05:14:09;;;;;;;31.57;9.33;;;;;;;7.82;100.00;100763.44;7373247;19;20396;-39
2023/11/23 05:16:38;;;;;;;29.23;10.83;;;;;;;7.86;100.00;100756.78;7397130;19;20419;-40
2023/11/23 05:19:08;;;;;;;17.90;5.80;;;;;;;7.90;100.00;100761.25;7374287;19;20762;-40
2023/11/23 05:21:38;;;;;;;24.00;11.30;;;;;;;7.94;100.00;100758.06;7396203;19;20404;-39
2023/11/23 05:24:08;;;;;;;22.37;10.40;;;;;;;7.97;100.00;100773.66;7374117;19;20964;-40
2023/11/23 05:26:41;;;;;;;33.87;11.77;;;;;;;8.04;100.00;100768.78;7397953;19;20415;-41
2023/11/23 05:29:10;;;;;;;28.67;9.30;;;;;;;8.06;100.00;100746.66;7373907;19;20781;-40
2023/11/23 05:31:42;;;;;;;20.80;6.87;;;;;;;8.07;100.00;100748.41;7396468;19;20406;-39
2023/11/23 05:34:12;;;;;;;27.47;10.60;;;;;;;8.13;100.00;100742.69;7373979;19;20986;-39
2023/11/23 05:36:41;;;;;;;24.37;5.67;;;;;;;8.13;100.00;100751.31;7398556;19;20426;-40
2023/11/23 05:39:12;;;;;;;28.93;3.90;;;;;;;8.16;100.00;100736.03;7373575;19;20465;-40
2023/11/23 05:41:45;;;;;;;7.50;3.60;;;;;;;8.19;100.00;100741.34;7396118;19;20404;-40
2023/11/23 05:44:14;;;;;;;28.13;7.20;;;;;;;8.19;100.00;100738.75;7373273;19;20402;-40
2023/11/23 05:46:47;;;;;;;22.30;6.27;;;;;;;8.24;100.00;100727.03;7395856;19;20412;-39
2023/11/23 05:49:20;;;;;;;21.77;4.57;;;;;;;8.21;100.00;100736.28;7373343;19;20399;-40
2023/11/23 05:51:50;;;;;;;20.43;7.57;;;;;;;8.27;100.00;100735.69;7394254;19;20411;-39
2023/11/23 05:54:20;;;;;;;19.67;5.17;;;;;;;8.28;100.00;100722.03;7374054;19;20483;-39
2023/11/23 05:56:52;;;;;;;30.03;7.10;;;;;;;8.30;100.00;100716.16;7397830;19;20406;-39
2023/11/23 05:59:22;;;;;;;15.87;3.93;;;;;;;8.29;100.00;100724.69;7373603;19;20403;-41
2023/11/23 06:01:51;;;;;;;12.63;5.87;;;;;;;8.31;100.00;100722.22;7395814;19;21080;-39
2023/11/23 06:04:21;;;;;;;18.37;6.17;;;;;;;8.31;100.00;100732.50;7373781;19;20942;-39
2023/11/23 06:06:51;;;;;;;10.43;5.10;;;;;;;8.31;100.00;100732.50;7395551;19;20768;-40
2023/11/23 06:09:21;;;;;;;10.37;4.00;;;;;;;8.33;100.00;100725.72;7372809;19;20494;-39
2023/11/23 06:11:53;;;;;;;6.90;3.73;;;;;;;8.32;100.00;100739.38;7395440;19;20403;-39
2023/11/23 06:14:22;;;;;;;14.13;5.30;;;;;;;8.34;100.00;100748.94;7373178;19;20423;-39
2023/11/23 06:16:52;;;;;;;10.10;4.83;;;;;;;8.35;100.00;100754.94;7393659;19;20838;-39
2023/11/23 06:19:22;;;;;;;30.77;7.83;;;;;;;8.35;100.00;100754.94;7372966;19;20814;-39
2023/11/23 06:21:52;;;;;;;13.23;4.90;;;;;;;8.33;100.00;100772.00;7397346;19;20407;-39
2023/11/23 06:24:22;;;;;;;11.60;3.87;;;;;;;8.34;100.00;100771.19;7372664;19;20395;-40
2023/11/23 06:26:55;;;;;;;19.87;5.70;;;;;;;8.35;100.00;100763.56;7395227;19;20408;-40
2023/11/23 06:29:24;;;;;;;11.03;4.67;;;;;;;8.38;100.00;100765.41;7366598;19;20521;-39
2023/11/23 06:31:56;;;;;;;14.37;4.80;;;;;;;8.38;100.00;100757.69;7397658;19;20471;-39
2023/11/23 06:34:30;;;;;;;8.67;3.23;;;;;;;8.37;100.00;100768.78;7373222;19;20510;-40
2023/11/23 06:36:59;;;;;;;9.70;4.97;;;;;;;8.38;100.00;100755.13;7394404;19;21015;-39
2023/11/23 06:39:29;;;;;;;10.53;2.90;;;;;;;8.42;100.00;100740.72;7372023;19;20411;-39
2023/11/23 06:42:01;;;;;;;21.83;6.30;;;;;;;8.44;100.00;100737.44;7395351;19;20782;-39
2023/11/23 06:44:31;;;;;;;10.13;3.57;;;;;;;8.41;100.00;100739.84;7374659;19;20429;-39
2023/11/23 06:47:01;;;;;;;17.53;4.77;;;;;;;8.42;100.00;100726.22;7395506;19;20482;-39
2023/11/23 06:49:31;;;;;;;8.50;4.53;;;;;;;8.42;100.00;100723.63;7372277;19;20492;-40
2023/11/23 06:52:01;;;;;;;20.53;5.37;;;;;;;8.42;100.00;100726.22;7396522;19;20422;-40
2023/11/23 06:54:32;;;;;;;9.43;4.40;;;;;;;8.45;100.00;100722.88;7372972;19;20443;-40
2023/11/23 06:57:04;;;;;;;9.30;3.33;;;;;;;8.42;100.00;100720.16;7394438;19;20416;-39
2023/11/23 06:59:35;;;;;;;24.37;5.60;;;;;;;8.43;100.00;100707.41;7371954;19;20431;-39
2023/11/23 07:02:06;;;;;;;18.73;5.60;;;;;;;8.43;100.00;100707.41;7394975;19;20424;-39
2023/11/23 07:04:36;;;;;;;12.07;3.93;;;;;;;8.44;100.00;100716.88;7370737;19;21039;-39
2023/11/23 07:07:06;;;;;;;12.43;3.60;;;;;;;8.49;100.00;100711.94;7394505;19;20406;-39
2023/11/23 07:09:36;;;;;;;16.03;5.47;;;;;;;8.48;100.00;100695.66;7370476;19;20510;-40
2023/11/23 07:12:09;;;;;;;7.50;2.10;;;;;;;8.48;100.00;100697.34;7394421;19;20920;-39
2023/11/23 07:14:41;;;;;;;16.93;3.60;;;;;;;8.49;100.00;100692.28;7368869;19;20833;-40
2023/11/23 07:17:10;;;;;;;14.67;3.47;;;;;;;8.49;100.00;100682.00;7394312;19;20410;-39
2023/11/23 07:19:40;;;;;;;17.90;3.90;;;;;;;8.51;100.00;100679.47;7370061;19;20435;-40
2023/11/23 07:22:10;;;;;;;7.33;2.43;;;;;;;8.51;100.00;100693.25;7396073;19;20498;-39
2023/11/23 07:24:40;;;;;;;10.93;2.93;;;;;;;8.54;100.00;100699.34;7370607;19;20942;-39
2023/11/23 07:27:12;;;;;;;7.03;2.90;;;;;;;8.54;100.00;100694.19;7393810;19;20412;-39
2023/11/23 07:29:42;;;;;;;10.20;3.37;;;;;;;8.55;100.00;100696.84;7369812;19;20957;-40
2023/11/23 07:32:11;;;;;;;10.83;3.57;;;;;;;8.54;100.00;100696.78;7394343;19;20440;-39
2023/11/23 07:34:41;;;;;;;6.63;2.90;;;;;;;8.55;100.00;100693.41;7368296;19;20419;-39
2023/11/23 07:37:11;;;;;;;21.57;3.40;;;;;;;8.57;100.00;100694.38;7394491;19;20411;-39
2023/11/23 07:39:41;;;;;;;15.57;3.60;;;;;;;8.59;100.00;100683.34;7369117;19;20440;-39
2023/11/23 07:42:15;;;;;;;13.83;3.30;;;;;;;8.60;100.00;100686.78;7393756;19;20419;-39
2023/11/23 07:44:46;;;;;;;22.53;2.07;;;;;;;8.59;100.00;100692.75;7370357;19;20407;-39
2023/11/23 07:47:16;;;;;;;11.47;2.83;;;;;;;8.62;100.00;100685.19;7393085;19;20406;-39
2023/11/23 07:49:46;;;;;;;14.70;3.37;;;;;;;8.62;100.00;100698.91;7369039;19;20514;-39
2023/11/23 07:52:15;;;;;;;19.10;3.87;;;;;;;8.63;100.00;100705.81;7393754;19;20400;-39
2023/11/23 07:54:45;;;;;;;13.43;3.30;;;;;;;8.66;100.00;100715.38;7369914;19;20427;-40
2023/11/23 07:57:18;;;;;;;18.23;3.60;;;;;;;8.68;100.00;100700.91;7393225;19;20420;-39
2023/11/23 07:59:48;;;;;;;10.57;3.00;;;;;;;8.68;100.00;100703.50;7369218;19;20434;-38
2023/11/23 08:02:18;;;;;;;9.93;3.33;;;;;;;8.68;100.00;100702.59;7393141;19;20391;-39
2023/11/23 08:04:48;;;;;;;17.60;3.67;;;;;;;8.68;100.00;100713.78;7369266;19;20447;-39
2023/11/23 08:07:17;;;;;;;15.23;3.83;;;;;;;8.70;100.00;100707.00;7393185;19;20407;-39
2023/11/23 08:09:48;;;;;;;15.60;1.87;;;;;;;8.73;100.00;100714.00;7368329;19;20659;-39
2023/11/23 08:12:20;;;;;;;13.63;3.30;;;;;;;8.75;100.00;100717.50;7393264;19;20771;-39
2023/11/23 08:14:50;;;;;;;14.57;3.70;;;;;;;8.75;100.00;100726.13;7368091;19;20440;-39
2023/11/23 08:17:19;;;;;;;12.80;2.43;;;;;;;8.78;100.00;100741.69;7395062;19;20984;-39
2023/11/23 08:19:50;;;;;;;3.70;2.40;;;;;;;8.82;100.00;100745.31;7368149;19;20775;-39
2023/11/23 08:22:21;;;;;;;12.80;2.83;;;;;;;8.85;100.00;100750.63;7393033;19;20448;-39
2023/11/23 08:24:51;;;;;;;15.57;4.47;;;;;;;8.84;100.00;100758.25;7369002;19;20416;-39
2023/11/23 08:27:24;;;;;;;10.40;3.40;;;;;;;8.86;100.00;100779.78;7392977;19;20478;-39
2023/11/23 08:29:53;;;;;;;6.70;2.07;;;;;;;8.84;100.00;100776.25;7368069;19;20435;-39
2023/11/23 08:32:23;;;;;;;6.57;2.20;;;;;;;8.86;100.00;100833.81;7392234;19;20943;-38
2023/11/23 08:34:53;;;;;;;6.67;2.40;;;;;;;8.86;100.00;100873.31;7370837;19;20421;-41
2023/11/23 08:37:22;;;;;;;3.53;1.10;;;;;;;8.84;100.00;100916.09;7392993;19;20415;-39
2023/11/23 08:39:52;;;;;;;10.10;2.50;;;;;;;8.85;100.00;100961.59;7380266;19;20514;-39
2023/11/23 08:42:24;;;;;;;7.47;2.20;;;;;;;8.85;100.00;100973.56;7406988;19;20507;-38
2023/11/23 08:44:54;;;;;;;11.23;2.37;;;;;;;8.84;100.00;101030.97;7382754;19;20419;-40
2023/11/23 08:47:24;;;;;;;15.20;2.70;;;;;;;8.88;100.00;101014.91;7407084;19;20427;-39
2023/11/23 08:49:55;;;;;;;11.57;2.87;;;;;;;8.83;100.00;101027.53;7381189;19;20430;-40
2023/11/23 08:52:25;;;;;;;7.37;2.40;;;;;;;8.84;100.00;101023.25;7406803;19;20399;-39
2023/11/23 08:54:54;;;;;;;9.90;2.03;;;;;;;8.82;100.00;101035.16;7379721;19;20450;-39
2023/11/23 08:57:28;;;;;;;7.67;1.47;;;;;;;8.85;100.00;101019.88;7397538;19;20856;-39
2023/11/23 08:59:57;;;;;;;8.23;2.47;;;;;;;8.83;100.00;101017.25;7368396;19;20428;-39
2023/11/23 09:02:27;;;;;;;17.43;3.50;;;;;;;8.82;100.00;101018.03;7398108;19;20399;-40
2023/11/23 09:04:59;;;;;;;8.10;2.10;;;;;;;8.81;100.00;101012.81;7375435;19;20994;-40
2023/11/23 09:07:29;;;;;;;7.37;2.67;;;;;;;8.82;100.00;101010.31;7398950;19;20415;-39
2023/11/23 09:09:59;;;;;;;13.63;3.10;;;;;;;8.82;100.00;101001.72;7373304;19;20423;-40
2023/11/23 09:12:33;;;;;;;13.33;2.90;;;;;;;8.83;100.00;100983.81;7398867;19;20410;-40
2023/11/23 09:15:04;;;;;;;15.87;3.30;;;;;;;8.84;100.00;100977.84;7373046;19;20970;-39
2023/11/23 09:17:35;;;;;;;19.77;2.97;;;;;;;8.85;100.00;100965.84;7397758;19;20435;-39
2023/11/23 09:20:08;;;;;;;8.60;2.73;;;;;;;8.83;100.00;100960.66;7373987;19;20447;-38
2023/11/23 09:22:39;;;;;;;8.47;2.40;;;;;;;8.84;100.00;100952.13;7398583;19;20408;-40
2023/11/23 09:25:09;;;;;;;20.00;3.10;;;;;;;8.85;100.00;100960.69;7375834;19;20425;-38
2023/11/23 09:27:41;;;;;;;12.13;4.30;;;;;;;8.90;100.00;100966.97;7400367;19;21073;-38
2023/11/23 09:30:12;;;;;;;20.43;9.37;;;;;;;8.95;100.00;100972.34;7373716;19;20842;-40
2023/11/23 09:32:42;;;;;;;13.70;3.13;;;;;;;8.95;100.00;100970.69;7397272;19;20423;-41
2023/11/23 09:35:12;;;;;;;16.07;3.23;;;;;;;9.00;100.00;100974.38;7375436;19;20419;-38
2023/11/23 09:37:42;;;;;;;21.30;7.63;;;;;;;9.01;100.00;100963.28;7397946;19;20427;-42
2023/11/23 09:40:20;;;;;;;11.10;3.57;;;;;;;9.01;100.00;100971.00;7374667;19;20430;-39
2023/11/23 09:42:52;;;;;;;25.10;4.50;;;;;;;9.02;100.00;100988.19;7397766;19;20494;-39
2023/11/23 09:45:24;;;;;;;11.23;4.03;;;;;;;9.04;100.00;101012.31;7375260;19;20466;-40
2023/11/23 09:47:56;;;;;;;33.53;11.13;;;;;;;9.09;100.00;100993.66;7396996;19;20977;-39
2023/11/23 09:50:29;;;;;;;12.07;2.10;;;;;;;9.05;100.00;100992.63;7368060;19;20459;-38
2023/11/23 09:53:05;;;;;;;18.00;3.57;;;;;;;9.08;100.00;100997.91;7390010;19;20399;-39
2023/11/23 09:55:35;;;;;;;23.93;8.30;;;;;;;9.14;100.00;100984.50;7368171;19;21066;-44
2023/11/23 09:58:07;;;;;;;13.57;3.40;;;;;;;9.15;100.00;100975.97;7389268;19;20415;-39
2023/11/23 10:00:37;;;;;;;19.17;3.00;;;;;;;9.16;100.00;100988.03;7367370;19;20423;-39
2023/11/23 10:03:10;;;;;;;18.87;4.30;;;;;;;9.07;100.00;101006.44;7392271;19;20440;-39
2023/11/23 10:05:40;;;;;;;12.53;4.20;;;;;;;9.09;100.00;101015.16;7367654;19;20434;-40
2023/11/23 10:08:10;;;;;;;11.73;3.50;;;;;;;9.17;100.00;100988.09;7391262;19;20855;-38
2023/11/23 10:10:40;;;;;;;10.87;3.30;;;;;;;9.22;100.00;100979.75;7364719;19;20983;-38
2023/11/23 10:13:12;;;;;;;7.47;3.10;;;;;;;9.22;100.00;100978.03;7389992;19;20968;-41
2023/11/23 10:15:42;;;;;;;37.33;6.53;;;;;;;9.27;100.00;100983.41;7365106;19;20461;-39
2023/11/23 10:18:12;;;;;;;15.30;3.77;;;;;;;9.29;100.00;100967.25;7389879;19;20419;-39
2023/11/23 10:20:46;;;;;;;24.10;7.40;;;;;;;9.31;100.00;100977.63;7366467;19;20419;-39
2023/11/23 10:23:17;;;;;;;16.53;2.50;;;;;;;9.32;100.00;100948.50;7390046;19;20527;-39
2023/11/23 10:25:47;;;;;;;29.40;7.47;;;;;;;9.35;100.00;100932.31;7367721;19;20443;-39
2023/11/23 10:28:22;;;;;;;21.87;7.20;;;;;;;9.41;100.00;100923.22;7388622;19;20989;-40
2023/11/23 10:30:52;;;;;;;18.97;5.17;;;;;;;9.40;100.00;100913.72;7365225;19;20427;-41
2023/11/23 10:33:22;;;;;;;22.67;7.70;;;;;;;9.44;100.00;100899.28;7388103;19;20403;-40
2023/11/23 10:35:53;;;;;;;16.07;2.80;;;;;;;9.44;100.00;100896.72;7367941;19;20435;-39
2023/11/23 10:38:25;;;;;;;10.40;2.60;;;;;;;9.43;100.00;100871.75;7388219;19;20875;-38
2023/11/23 10:41:11;;;;;;;10.13;2.23;;;;;;;9.44;100.00;100858.09;7367068;19;20438;-38
2023/11/23 10:43:45;;;;;;;14.67;2.63;;;;;;;9.45;100.00;100863.28;7365364;19;20412;-39
2023/11/23 10:46:16;;;;;;;9.73;2.70;;;;;;;9.50;100.00;100857.50;7387470;19;20407;-39
2023/11/23 10:48:47;;;;;;;22.00;3.40;;;;;;;9.50;100.00;100845.50;7365909;19;20523;-38
2023/11/23 10:51:18;;;;;;;4.03;1.07;;;;;;;9.51;100.00;100828.34;7386854;19;20412;-38
2023/11/23 10:53:47;;;;;;;11.00;2.53;;;;;;;9.54;100.00;100813.03;7366819;19;20456;-39
2023/11/23 10:56:19;;;;;;;6.57;1.53;;;;;;;9.55;100.00;100796.78;7385015;19;20482;-38
2023/11/23 10:58:54;;;;;;;22.00;1.63;;;;;;;9.55;100.00;100805.38;7366460;19;20409;-39
2023/11/23 11:01:25;;;;;;;24.20;3.57;;;;;;;9.56;100.00;100799.44;7385898;19;20410;-38
2023/11/23 11:03:55;;;;;;;15.23;1.93;;;;;;;9.54;100.00;100783.00;7366608;19;20422;-39
2023/11/23 11:06:25;;;;;;;8.70;2.37;;;;;;;9.58;100.00;100742.81;7387588;19;20426;-39
2023/11/23 11:08:55;;;;;;;13.87;2.63;;;;;;;9.61;100.00;100718.88;7366480;19;20839;-38
2023/11/23 11:11:26;;;;;;;21.23;2.50;;;;;;;9.61;100.00;100713.72;7386769;19;20404;-38
2023/11/23 11:14:03;;;;;;;8.10;1.90;;;;;;;9.57;100.00;100703.31;7363908;19;20431;-38
2023/11/23 11:16:39;;;;;;;9.67;1.93;;;;;;;9.62;100.00;100688.06;7388785;19;20407;-39
2023/11/23 11:19:11;;;;;;;15.73;2.13;;;;;;;9.61;100.00;100672.53;7365241;19;20808;-38
2023/11/23 11:21:46;;;;;;;9.90;2.33;;;;;;;9.62;100.00;100682.91;7386702;19;20411;-38
2023/11/23 11:24:21;;;;;;;29.00;2.60;;;;;;;9.65;100.00;100658.97;7365843;19;20439;-39
2023/11/23 11:26:52;;;;;;;5.63;1.40;;;;;;;9.58;100.00;100665.53;7389285;19;20413;-38
2023/11/23 11:29:25;;;;;;;22.93;2.40;;;;;;;9.60;100.00;100666.50;7363425;19;20423;-41
2023/11/23 11:31:55;;;;;;;7.33;1.40;;;;;;;9.57;100.00;100658.63;7386803;19;20725;-39